sensor_id;sensor_type;location;lat;lon;timestamp;temperature;humidity
3035;DHT22;1527;48.836;9.172;2022-08-11T00:01:14;21.70;82.00
3035;DHT22;1527;48.836;9.172;2022-08-11T00:03:47;21.70;82.30
3035;DHT22;1527;48.836;9.172;2022-08-11T00:06:26;21.70;82.40
3035;DHT22;1527;48.836;9.172;2022-08-11T00:08:58;21.60;82.60
3035;DHT22;1527;48.836;9.172;2022-08-11T00:11:33;21.60;82.60
3035;DHT22;1527;48.836;9.172;2022-08-11T00:14:13;21.60;83.10
3035;DHT22;1527;48.836;9.172;2022-08-11T00:16:52;21.50;83.30
3035;DHT22;1527;48.836;9.172;2022-08-11T00:19:28;21.50;83.40
3035;DHT22;1527;48.836;9.172;2022-08-11T00:22:21;21.40;83.30
3035;DHT22;1527;48.836;9.172;2022-08-11T00:24:51;21.40;84.00
3035;DHT22;1527;48.836;9.172;2022-08-11T00:27:31;21.30;83.80
3035;DHT22;1527;48.836;9.172;2022-08-11T00:30:02;21.30;84.20
3035;DHT22;1527;48.836;9.172;2022-08-11T00:32:32;21.30;84.60
3035;DHT22;1527;48.836;9.172;2022-08-11T00:35:03;21.20;84.40
3035;DHT22;1527;48.836;9.172;2022-08-11T00:37:56;21.10;85.10
3035;DHT22;1527;48.836;9.172;2022-08-11T00:40:40;20.90;85.30
3035;DHT22;1527;48.836;9.172;2022-08-11T00:43:19;20.90;85.10
3035;DHT22;1527;48.836;9.172;2022-08-11T00:46:15;20.80;85.50
3035;DHT22;1527;48.836;9.172;2022-08-11T00:48:58;20.80;85.80
3035;DHT22;1527;48.836;9.172;2022-08-11T00:51:42;20.80;85.80
3035;DHT22;1527;48.836;9.172;2022-08-11T01:02:14;20.80;86.80
3035;DHT22;1527;48.836;9.172;2022-08-11T01:05:09;20.90;87.30
3035;DHT22;1527;48.836;9.172;2022-08-11T01:08:11;20.90;87.50
3035;DHT22;1527;48.836;9.172;2022-08-11T01:11:05;21.00;87.30
3035;DHT22;1527;48.836;9.172;2022-08-11T01:14:13;21.00;87.30
3035;DHT22;1527;48.836;9.172;2022-08-11T01:20:15;21.10;87.40
3035;DHT22;1527;48.836;9.172;2022-08-11T01:23:41;21.00;88.20
3035;DHT22;1527;48.836;9.172;2022-08-11T01:27:12;20.90;88.40
3035;DHT22;1527;48.836;9.172;2022-08-11T01:30:16;20.90;88.60
3035;DHT22;1527;48.836;9.172;2022-08-11T01:40:29;20.60;89.30
3035;DHT22;1527;48.836;9.172;2022-08-11T01:44:02;20.50;90.10
3035;DHT22;1527;48.836;9.172;2022-08-11T01:47:09;20.40;90.10
3035;DHT22;1527;48.836;9.172;2022-08-11T01:50:31;20.40;90.10
3035;DHT22;1527;48.836;9.172;2022-08-11T01:53:17;20.40;90.50
3035;DHT22;1527;48.836;9.172;2022-08-11T01:56:03;20.40;90.40
3035;DHT22;1527;48.836;9.172;2022-08-11T01:58:44;20.20;90.80
3035;DHT22;1527;48.836;9.172;2022-08-11T02:01:30;20.20;90.50
3035;DHT22;1527;48.836;9.172;2022-08-11T02:04:17;20.20;90.60
3035;DHT22;1527;48.836;9.172;2022-08-11T02:07:00;20.10;90.90
3035;DHT22;1527;48.836;9.172;2022-08-11T02:09:56;20.10;91.00
3035;DHT22;1527;48.836;9.172;2022-08-11T02:13:13;19.80;91.40
3035;DHT22;1527;48.836;9.172;2022-08-11T02:16:02;19.70;91.50
3035;DHT22;1527;48.836;9.172;2022-08-11T02:18:37;19.80;91.40
3035;DHT22;1527;48.836;9.172;2022-08-11T02:21:35;19.80;91.60
3035;DHT22;1527;48.836;9.172;2022-08-11T02:24:48;19.90;91.70
3035;DHT22;1527;48.836;9.172;2022-08-11T02:27:25;19.80;91.90
3035;DHT22;1527;48.836;9.172;2022-08-11T02:30:02;19.70;92.00
3035;DHT22;1527;48.836;9.172;2022-08-11T02:32:38;19.70;91.90
3035;DHT22;1527;48.836;9.172;2022-08-11T02:35:40;19.70;92.20
3035;DHT22;1527;48.836;9.172;2022-08-11T02:38:19;19.80;91.80
3035;DHT22;1527;48.836;9.172;2022-08-11T02:41:00;19.90;91.70
3035;DHT22;1527;48.836;9.172;2022-08-11T02:44:09;19.80;92.10
3035;DHT22;1527;48.836;9.172;2022-08-11T02:46:52;19.80;92.10
3035;DHT22;1527;48.836;9.172;2022-08-11T02:49:39;19.80;92.20
3035;DHT22;1527;48.836;9.172;2022-08-11T02:52:40;19.70;92.30
3035;DHT22;1527;48.836;9.172;2022-08-11T02:55:18;19.70;92.50
3035;DHT22;1527;48.836;9.172;2022-08-11T02:58:16;19.60;92.70
3035;DHT22;1527;48.836;9.172;2022-08-11T03:01:08;19.60;92.90
3035;DHT22;1527;48.836;9.172;2022-08-11T03:03:48;19.50;93.00
3035;DHT22;1527;48.836;9.172;2022-08-11T03:06:28;19.40;93.50
3035;DHT22;1527;48.836;9.172;2022-08-11T03:09:08;19.40;93.30
3035;DHT22;1527;48.836;9.172;2022-08-11T03:11:49;19.40;93.50
3035;DHT22;1527;48.836;9.172;2022-08-11T03:14:52;19.40;93.40
3035;DHT22;1527;48.836;9.172;2022-08-11T03:17:52;19.40;93.50
3035;DHT22;1527;48.836;9.172;2022-08-11T03:20:37;19.40;93.70
3035;DHT22;1527;48.836;9.172;2022-08-11T03:23:17;19.30;93.80
3035;DHT22;1527;48.836;9.172;2022-08-11T03:26:09;19.40;94.20
3035;DHT22;1527;48.836;9.172;2022-08-11T03:28:52;19.10;94.20
3035;DHT22;1527;48.836;9.172;2022-08-11T03:31:39;19.10;94.50
3035;DHT22;1527;48.836;9.172;2022-08-11T03:34:18;19.10;94.50
3035;DHT22;1527;48.836;9.172;2022-08-11T03:40:41;19.10;94.60
3035;DHT22;1527;48.836;9.172;2022-08-11T03:44:02;19.10;95.00
3035;DHT22;1527;48.836;9.172;2022-08-11T03:46:46;19.10;95.20
3035;DHT22;1527;48.836;9.172;2022-08-11T03:49:35;19.10;95.50
3035;DHT22;1527;48.836;9.172;2022-08-11T03:52:22;19.00;95.60
3035;DHT22;1527;48.836;9.172;2022-08-11T03:55:08;19.00;95.80
3035;DHT22;1527;48.836;9.172;2022-08-11T03:58:22;18.90;95.90
3035;DHT22;1527;48.836;9.172;2022-08-11T04:04:52;18.90;96.30
3035;DHT22;1527;48.836;9.172;2022-08-11T04:11:09;18.80;96.60
3035;DHT22;1527;48.836;9.172;2022-08-11T04:14:12;18.80;96.80
3035;DHT22;1527;48.836;9.172;2022-08-11T04:17:49;18.80;97.10
3035;DHT22;1527;48.836;9.172;2022-08-11T04:20:55;18.70;97.40
3035;DHT22;1527;48.836;9.172;2022-08-11T04:24:18;18.70;97.70
3035;DHT22;1527;48.836;9.172;2022-08-11T04:27:40;18.60;97.90
3035;DHT22;1527;48.836;9.172;2022-08-11T04:30:27;18.60;98.10
3035;DHT22;1527;48.836;9.172;2022-08-11T04:33:57;18.60;98.70
3035;DHT22;1527;48.836;9.172;2022-08-11T04:36:42;18.60;98.90
3035;DHT22;1527;48.836;9.172;2022-08-11T04:39:46;18.60;98.90
3035;DHT22;1527;48.836;9.172;2022-08-11T04:43:14;18.50;99.00
3035;DHT22;1527;48.836;9.172;2022-08-11T04:46:32;18.50;99.30
3035;DHT22;1527;48.836;9.172;2022-08-11T04:49:57;18.50;99.60
3035;DHT22;1527;48.836;9.172;2022-08-11T04:53:12;18.50;99.70
3035;DHT22;1527;48.836;9.172;2022-08-11T04:56:10;18.50;99.90
3035;DHT22;1527;48.836;9.172;2022-08-11T05:06:22;18.90;99.90
3035;DHT22;1527;48.836;9.172;2022-08-11T05:09:20;19.30;99.60
3035;DHT22;1527;48.836;9.172;2022-08-11T05:12:33;20.00;98.70
3035;DHT22;1527;48.836;9.172;2022-08-11T05:15:09;20.50;97.90
3035;DHT22;1527;48.836;9.172;2022-08-11T05:18:13;20.90;96.80
3035;DHT22;1527;48.836;9.172;2022-08-11T05:21:08;21.20;96.60
3035;DHT22;1527;48.836;9.172;2022-08-11T05:24:06;21.30;96.50
3035;DHT22;1527;48.836;9.172;2022-08-11T05:27:00;21.50;95.90
3035;DHT22;1527;48.836;9.172;2022-08-11T05:29:56;21.70;96.00
3035;DHT22;1527;48.836;9.172;2022-08-11T05:32:53;22.20;95.60
3035;DHT22;1527;48.836;9.172;2022-08-11T05:35:44;22.70;95.60
3035;DHT22;1527;48.836;9.172;2022-08-11T05:38:33;23.20;95.10
3035;DHT22;1527;48.836;9.172;2022-08-11T05:41:23;23.70;94.10
3035;DHT22;1527;48.836;9.172;2022-08-11T05:44:18;24.10;93.80
3035;DHT22;1527;48.836;9.172;2022-08-11T05:47:06;24.70;93.50
3035;DHT22;1527;48.836;9.172;2022-08-11T05:49:54;25.00;92.80
3035;DHT22;1527;48.836;9.172;2022-08-11T05:52:44;25.40;91.50
3035;DHT22;1527;48.836;9.172;2022-08-11T05:55:39;25.70;91.00
3035;DHT22;1527;48.836;9.172;2022-08-11T05:58:36;26.00;90.60
3035;DHT22;1527;48.836;9.172;2022-08-11T06:01:11;26.20;89.90
3035;DHT22;1527;48.836;9.172;2022-08-11T06:03:43;26.40;89.20
3035;DHT22;1527;48.836;9.172;2022-08-11T06:06:31;26.50;87.30
3035;DHT22;1527;48.836;9.172;2022-08-11T06:09:00;26.60;86.30
3035;DHT22;1527;48.836;9.172;2022-08-11T06:11:30;26.70;85.90
3035;DHT22;1527;48.836;9.172;2022-08-11T06:14:13;26.80;86.00
3035;DHT22;1527;48.836;9.172;2022-08-11T06:16:47;26.90;84.10
3035;DHT22;1527;48.836;9.172;2022-08-11T06:19:19;27.00;84.30
3035;DHT22;1527;48.836;9.172;2022-08-11T06:21:51;27.10;83.10
3035;DHT22;1527;48.836;9.172;2022-08-11T06:24:21;27.10;82.80
3035;DHT22;1527;48.836;9.172;2022-08-11T06:26:51;27.10;82.80
3035;DHT22;1527;48.836;9.172;2022-08-11T06:29:48;27.10;82.20
3035;DHT22;1527;48.836;9.172;2022-08-11T06:32:27;27.10;82.70
3035;DHT22;1527;48.836;9.172;2022-08-11T06:35:09;27.10;81.00
3035;DHT22;1527;48.836;9.172;2022-08-11T06:37:57;26.90;82.10
3035;DHT22;1527;48.836;9.172;2022-08-11T06:40:41;26.80;82.10
3035;DHT22;1527;48.836;9.172;2022-08-11T06:43:46;26.60;82.90
3035;DHT22;1527;48.836;9.172;2022-08-11T06:46:28;26.70;81.90
3035;DHT22;1527;48.836;9.172;2022-08-11T06:49:00;26.60;81.90
3035;DHT22;1527;48.836;9.172;2022-08-11T06:51:30;26.60;82.30
3035;DHT22;1527;48.836;9.172;2022-08-11T06:54:03;26.70;82.70
3035;DHT22;1527;48.836;9.172;2022-08-11T06:56:35;26.60;82.70
3035;DHT22;1527;48.836;9.172;2022-08-11T06:59:44;26.70;82.60
3035;DHT22;1527;48.836;9.172;2022-08-11T07:02:40;26.80;82.50
3035;DHT22;1527;48.836;9.172;2022-08-11T07:05:20;26.80;83.80
3035;DHT22;1527;48.836;9.172;2022-08-11T07:14:54;26.80;82.40
3035;DHT22;1527;48.836;9.172;2022-08-11T07:17:48;26.70;82.20
3035;DHT22;1527;48.836;9.172;2022-08-11T07:20:39;26.90;82.60
3035;DHT22;1527;48.836;9.172;2022-08-11T07:23:31;27.00;82.20
3035;DHT22;1527;48.836;9.172;2022-08-11T07:26:23;27.00;82.90
3035;DHT22;1527;48.836;9.172;2022-08-11T07:29:13;26.90;82.90
3035;DHT22;1527;48.836;9.172;2022-08-11T07:31:47;27.00;82.80
3035;DHT22;1527;48.836;9.172;2022-08-11T07:34:23;27.10;82.30
3035;DHT22;1527;48.836;9.172;2022-08-11T07:36:56;27.10;82.80
3035;DHT22;1527;48.836;9.172;2022-08-11T07:39:27;26.90;83.20
3035;DHT22;1527;48.836;9.172;2022-08-11T07:42:04;26.90;83.60
3035;DHT22;1527;48.836;9.172;2022-08-11T07:44:34;26.80;83.00
3035;DHT22;1527;48.836;9.172;2022-08-11T07:47:26;26.40;83.00
3035;DHT22;1527;48.836;9.172;2022-08-11T07:50:15;26.30;84.20
3035;DHT22;1527;48.836;9.172;2022-08-11T07:53:03;26.20;83.30
3035;DHT22;1527;48.836;9.172;2022-08-11T07:55:33;26.20;84.10
3035;DHT22;1527;48.836;9.172;2022-08-11T07:58:23;26.20;84.00
3035;DHT22;1527;48.836;9.172;2022-08-11T08:01:22;26.20;84.90
3035;DHT22;1527;48.836;9.172;2022-08-11T08:04:11;26.10;84.20
3035;DHT22;1527;48.836;9.172;2022-08-11T08:07:03;26.00;83.60
3035;DHT22;1527;48.836;9.172;2022-08-11T08:09:50;26.00;84.70
3035;DHT22;1527;48.836;9.172;2022-08-11T08:12:43;26.00;85.00
3035;DHT22;1527;48.836;9.172;2022-08-11T08:15:30;26.10;84.40
3035;DHT22;1527;48.836;9.172;2022-08-11T08:18:17;26.20;84.50
3035;DHT22;1527;48.836;9.172;2022-08-11T08:20:55;26.40;84.80
3035;DHT22;1527;48.836;9.172;2022-08-11T08:23:42;26.40;83.80
3035;DHT22;1527;48.836;9.172;2022-08-11T08:26:14;26.40;84.60
3035;DHT22;1527;48.836;9.172;2022-08-11T08:29:04;26.30;83.80
3035;DHT22;1527;48.836;9.172;2022-08-11T08:31:52;26.10;83.70
3035;DHT22;1527;48.836;9.172;2022-08-11T08:34:23;26.10;84.30
3035;DHT22;1527;48.836;9.172;2022-08-11T08:36:54;26.20;84.00
3035;DHT22;1527;48.836;9.172;2022-08-11T08:39:24;26.20;84.10
3035;DHT22;1527;48.836;9.172;2022-08-11T08:41:56;26.40;84.50
3035;DHT22;1527;48.836;9.172;2022-08-11T08:44:27;26.40;83.60
3035;DHT22;1527;48.836;9.172;2022-08-11T08:47:11;26.40;83.10
3035;DHT22;1527;48.836;9.172;2022-08-11T08:50:06;26.50;82.00
3035;DHT22;1527;48.836;9.172;2022-08-11T08:52:48;26.60;81.00
3035;DHT22;1527;48.836;9.172;2022-08-11T08:55:22;26.60;81.30
3035;DHT22;1527;48.836;9.172;2022-08-11T08:57:52;26.70;80.90
3035;DHT22;1527;48.836;9.172;2022-08-11T09:00:23;26.80;81.10
3035;DHT22;1527;48.836;9.172;2022-08-11T09:02:52;26.80;79.40
3035;DHT22;1527;48.836;9.172;2022-08-11T09:05:21;26.90;78.60
3035;DHT22;1527;48.836;9.172;2022-08-11T09:07:54;26.90;77.30
3035;DHT22;1527;48.836;9.172;2022-08-11T09:10:26;26.90;76.60
3035;DHT22;1527;48.836;9.172;2022-08-11T09:12:58;26.80;76.50
3035;DHT22;1527;48.836;9.172;2022-08-11T09:15:32;26.70;77.10
3035;DHT22;1527;48.836;9.172;2022-08-11T09:18:02;26.80;76.80
3035;DHT22;1527;48.836;9.172;2022-08-11T09:20:34;26.80;75.60
3035;DHT22;1527;48.836;9.172;2022-08-11T09:23:06;26.80;75.10
3035;DHT22;1527;48.836;9.172;2022-08-11T09:26:15;26.90;75.70
3035;DHT22;1527;48.836;9.172;2022-08-11T09:29:02;27.00;76.20
3035;DHT22;1527;48.836;9.172;2022-08-11T09:31:32;27.10;75.10
3035;DHT22;1527;48.836;9.172;2022-08-11T09:34:07;27.20;73.80
3035;DHT22;1527;48.836;9.172;2022-08-11T09:36:39;27.30;73.50
3035;DHT22;1527;48.836;9.172;2022-08-11T09:39:28;27.40;72.00
3035;DHT22;1527;48.836;9.172;2022-08-11T09:42:19;27.50;72.70
3035;DHT22;1527;48.836;9.172;2022-08-11T09:44:51;27.50;71.60
3035;DHT22;1527;48.836;9.172;2022-08-11T09:47:24;27.70;71.40
3035;DHT22;1527;48.836;9.172;2022-08-11T09:49:58;27.70;71.10
3035;DHT22;1527;48.836;9.172;2022-08-11T09:52:35;27.80;70.50
3035;DHT22;1527;48.836;9.172;2022-08-11T09:55:24;27.60;70.70
3035;DHT22;1527;48.836;9.172;2022-08-11T09:57:55;27.50;70.70
3035;DHT22;1527;48.836;9.172;2022-08-11T10:01:03;27.50;69.70
3035;DHT22;1527;48.836;9.172;2022-08-11T10:03:37;27.50;69.60
3035;DHT22;1527;48.836;9.172;2022-08-11T10:06:09;27.60;70.10
3035;DHT22;1527;48.836;9.172;2022-08-11T10:09:02;27.70;69.80
3035;DHT22;1527;48.836;9.172;2022-08-11T10:11:34;27.60;68.50
3035;DHT22;1527;48.836;9.172;2022-08-11T10:14:06;27.70;68.70
3035;DHT22;1527;48.836;9.172;2022-08-11T10:17:04;27.70;68.40
3035;DHT22;1527;48.836;9.172;2022-08-11T10:19:35;27.80;68.80
3035;DHT22;1527;48.836;9.172;2022-08-11T10:22:06;28.10;69.30
3035;DHT22;1527;48.836;9.172;2022-08-11T10:24:58;28.30;69.00
3035;DHT22;1527;48.836;9.172;2022-08-11T10:27:47;28.30;67.60
3035;DHT22;1527;48.836;9.172;2022-08-11T10:30:45;28.40;67.20
3035;DHT22;1527;48.836;9.172;2022-08-11T10:33:33;28.50;67.60
3035;DHT22;1527;48.836;9.172;2022-08-11T10:36:26;28.50;64.40
3035;DHT22;1527;48.836;9.172;2022-08-11T10:38:57;28.70;63.60
3035;DHT22;1527;48.836;9.172;2022-08-11T10:41:29;28.50;61.80
3035;DHT22;1527;48.836;9.172;2022-08-11T10:44:38;28.50;62.80
3035;DHT22;1527;48.836;9.172;2022-08-11T10:47:12;28.50;63.90
3035;DHT22;1527;48.836;9.172;2022-08-11T10:50:00;28.60;64.30
3035;DHT22;1527;48.836;9.172;2022-08-11T10:52:49;28.60;64.50
3035;DHT22;1527;48.836;9.172;2022-08-11T10:55:41;28.60;64.20
3035;DHT22;1527;48.836;9.172;2022-08-11T10:58:29;28.80;62.70
3035;DHT22;1527;48.836;9.172;2022-08-11T11:01:22;28.80;61.20
3035;DHT22;1527;48.836;9.172;2022-08-11T11:03:57;28.80;63.70
3035;DHT22;1527;48.836;9.172;2022-08-11T11:06:35;29.00;63.70
3035;DHT22;1527;48.836;9.172;2022-08-11T11:09:15;28.90;63.50
3035;DHT22;1527;48.836;9.172;2022-08-11T11:11:52;28.80;63.30
3035;DHT22;1527;48.836;9.172;2022-08-11T11:14:41;28.80;64.20
3035;DHT22;1527;48.836;9.172;2022-08-11T11:17:31;28.80;63.80
3035;DHT22;1527;48.836;9.172;2022-08-11T11:20:28;28.90;63.50
3035;DHT22;1527;48.836;9.172;2022-08-11T11:23:09;28.70;63.30
3035;DHT22;1527;48.836;9.172;2022-08-11T11:25:58;28.80;62.80
3035;DHT22;1527;48.836;9.172;2022-08-11T11:29:19;29.00;63.20
3035;DHT22;1527;48.836;9.172;2022-08-11T11:32:17;28.90;64.20
3035;DHT22;1527;48.836;9.172;2022-08-11T11:38:05;29.20;63.10
3035;DHT22;1527;48.836;9.172;2022-08-11T11:40:42;29.30;63.90
3035;DHT22;1527;48.836;9.172;2022-08-11T11:43:32;29.30;61.70
3035;DHT22;1527;48.836;9.172;2022-08-11T11:46:05;29.30;63.20
3035;DHT22;1527;48.836;9.172;2022-08-11T11:48:37;29.30;61.40
3035;DHT22;1527;48.836;9.172;2022-08-11T11:51:08;29.20;61.80
3035;DHT22;1527;48.836;9.172;2022-08-11T11:53:42;29.30;62.20
3035;DHT22;1527;48.836;9.172;2022-08-11T11:56:12;29.40;61.90
3035;DHT22;1527;48.836;9.172;2022-08-11T11:58:42;29.40;61.70
3035;DHT22;1527;48.836;9.172;2022-08-11T12:01:30;29.30;62.00
3035;DHT22;1527;48.836;9.172;2022-08-11T12:04:03;29.40;61.20
3035;DHT22;1527;48.836;9.172;2022-08-11T12:06:34;29.50;61.90
3035;DHT22;1527;48.836;9.172;2022-08-11T12:09:05;29.50;61.30
3035;DHT22;1527;48.836;9.172;2022-08-11T12:11:34;29.50;61.10
3035;DHT22;1527;48.836;9.172;2022-08-11T12:14:21;29.50;60.90
3035;DHT22;1527;48.836;9.172;2022-08-11T12:16:55;29.40;59.90
3035;DHT22;1527;48.836;9.172;2022-08-11T12:19:27;29.30;60.60
3035;DHT22;1527;48.836;9.172;2022-08-11T12:22:04;29.40;61.00
3035;DHT22;1527;48.836;9.172;2022-08-11T12:24:51;29.40;60.80
3035;DHT22;1527;48.836;9.172;2022-08-11T12:27:38;29.60;60.80
3035;DHT22;1527;48.836;9.172;2022-08-11T12:30:09;29.80;60.30
3035;DHT22;1527;48.836;9.172;2022-08-11T12:32:40;29.80;59.60
3035;DHT22;1527;48.836;9.172;2022-08-11T12:35:13;29.50;59.60
3035;DHT22;1527;48.836;9.172;2022-08-11T12:37:48;29.50;60.00
3035;DHT22;1527;48.836;9.172;2022-08-11T12:40:33;29.50;60.50
3035;DHT22;1527;48.836;9.172;2022-08-11T12:43:45;29.60;60.80
3035;DHT22;1527;48.836;9.172;2022-08-11T12:46:34;29.70;60.20
3035;DHT22;1527;48.836;9.172;2022-08-11T12:49:09;29.90;59.40
3035;DHT22;1527;48.836;9.172;2022-08-11T12:52:02;30.00;58.50
3035;DHT22;1527;48.836;9.172;2022-08-11T12:54:50;30.00;58.50
3035;DHT22;1527;48.836;9.172;2022-08-11T12:57:28;29.80;59.60
3035;DHT22;1527;48.836;9.172;2022-08-11T13:00:18;29.80;58.80
3035;DHT22;1527;48.836;9.172;2022-08-11T13:03:08;29.90;58.40
3035;DHT22;1527;48.836;9.172;2022-08-11T13:05:58;29.90;58.30
3035;DHT22;1527;48.836;9.172;2022-08-11T13:08:32;29.80;58.00
3035;DHT22;1527;48.836;9.172;2022-08-11T13:11:08;29.80;57.80
3035;DHT22;1527;48.836;9.172;2022-08-11T13:14:15;29.80;57.80
3035;DHT22;1527;48.836;9.172;2022-08-11T13:16:45;29.70;57.90
3035;DHT22;1527;48.836;9.172;2022-08-11T13:19:33;29.80;56.80
3035;DHT22;1527;48.836;9.172;2022-08-11T13:22:03;29.60;57.00
3035;DHT22;1527;48.836;9.172;2022-08-11T13:24:35;29.60;56.80
3035;DHT22;1527;48.836;9.172;2022-08-11T13:27:06;29.70;56.60
3035;DHT22;1527;48.836;9.172;2022-08-11T13:29:35;29.70;56.80
3035;DHT22;1527;48.836;9.172;2022-08-11T13:32:07;29.70;56.30
3035;DHT22;1527;48.836;9.172;2022-08-11T13:34:39;29.60;56.30
3035;DHT22;1527;48.836;9.172;2022-08-11T13:37:11;29.70;56.30
3035;DHT22;1527;48.836;9.172;2022-08-11T13:39:43;29.60;55.90
3035;DHT22;1527;48.836;9.172;2022-08-11T13:42:16;29.60;56.10
3035;DHT22;1527;48.836;9.172;2022-08-11T13:44:48;29.80;56.10
3035;DHT22;1527;48.836;9.172;2022-08-11T13:47:18;29.80;55.40
3035;DHT22;1527;48.836;9.172;2022-08-11T13:49:50;29.90;55.70
3035;DHT22;1527;48.836;9.172;2022-08-11T13:52:20;30.00;55.00
3035;DHT22;1527;48.836;9.172;2022-08-11T13:54:50;29.90;54.30
3035;DHT22;1527;48.836;9.172;2022-08-11T13:57:22;29.80;54.50
3035;DHT22;1527;48.836;9.172;2022-08-11T14:00:12;29.80;54.40
3035;DHT22;1527;48.836;9.172;2022-08-11T14:02:56;29.90;54.50
3035;DHT22;1527;48.836;9.172;2022-08-11T14:05:27;29.80;54.40
3035;DHT22;1527;48.836;9.172;2022-08-11T14:08:00;29.80;54.80
3035;DHT22;1527;48.836;9.172;2022-08-11T14:10:33;29.70;55.00
3035;DHT22;1527;48.836;9.172;2022-08-11T14:13:09;29.70;54.40
3035;DHT22;1527;48.836;9.172;2022-08-11T14:16:18;29.80;54.70
3035;DHT22;1527;48.836;9.172;2022-08-11T14:18:52;29.90;53.70
3035;DHT22;1527;48.836;9.172;2022-08-11T14:21:23;29.90;53.70
3035;DHT22;1527;48.836;9.172;2022-08-11T14:24:10;30.00;54.50
3035;DHT22;1527;48.836;9.172;2022-08-11T14:26:40;30.00;54.20
3035;DHT22;1527;48.836;9.172;2022-08-11T14:29:13;29.90;54.20
3035;DHT22;1527;48.836;9.172;2022-08-11T14:31:46;30.00;53.90
3035;DHT22;1527;48.836;9.172;2022-08-11T14:34:18;29.90;53.30
3035;DHT22;1527;48.836;9.172;2022-08-11T14:36:51;29.90;53.10
3035;DHT22;1527;48.836;9.172;2022-08-11T14:39:23;29.90;52.80
3035;DHT22;1527;48.836;9.172;2022-08-11T14:41:55;29.90;52.90
3035;DHT22;1527;48.836;9.172;2022-08-11T14:44:46;29.80;53.40
3035;DHT22;1527;48.836;9.172;2022-08-11T14:47:36;29.80;53.70
3035;DHT22;1527;48.836;9.172;2022-08-11T14:50:10;29.80;53.60
3035;DHT22;1527;48.836;9.172;2022-08-11T14:52:49;29.80;53.90
3035;DHT22;1527;48.836;9.172;2022-08-11T14:55:22;29.80;53.60
3035;DHT22;1527;48.836;9.172;2022-08-11T14:58:14;30.00;54.00
3035;DHT22;1527;48.836;9.172;2022-08-11T15:00:48;29.90;53.10
3035;DHT22;1527;48.836;9.172;2022-08-11T15:03:21;30.00;53.10
3035;DHT22;1527;48.836;9.172;2022-08-11T15:05:56;30.00;53.60
3035;DHT22;1527;48.836;9.172;2022-08-11T15:08:30;30.00;53.40
3035;DHT22;1527;48.836;9.172;2022-08-11T15:11:20;29.90;52.90
3035;DHT22;1527;48.836;9.172;2022-08-11T15:14:09;29.90;53.40
3035;DHT22;1527;48.836;9.172;2022-08-11T15:16:43;29.90;53.80
3035;DHT22;1527;48.836;9.172;2022-08-11T15:19:31;29.90;53.30
3035;DHT22;1527;48.836;9.172;2022-08-11T15:22:08;30.00;53.00
3035;DHT22;1527;48.836;9.172;2022-08-11T15:24:57;30.00;53.20
3035;DHT22;1527;48.836;9.172;2022-08-11T15:27:29;30.10;53.90
3035;DHT22;1527;48.836;9.172;2022-08-11T15:30:16;30.10;53.30
3035;DHT22;1527;48.836;9.172;2022-08-11T15:33:11;30.10;53.20
3035;DHT22;1527;48.836;9.172;2022-08-11T15:36:02;30.10;53.20
3035;DHT22;1527;48.836;9.172;2022-08-11T15:38:54;30.10;52.80
3035;DHT22;1527;48.836;9.172;2022-08-11T15:41:30;30.10;52.60
3035;DHT22;1527;48.836;9.172;2022-08-11T15:44:32;30.20;52.60
3035;DHT22;1527;48.836;9.172;2022-08-11T15:47:38;30.20;52.70
3035;DHT22;1527;48.836;9.172;2022-08-11T15:50:16;30.20;53.00
3035;DHT22;1527;48.836;9.172;2022-08-11T15:52:53;30.10;52.80
3035;DHT22;1527;48.836;9.172;2022-08-11T15:55:25;30.10;53.00
3035;DHT22;1527;48.836;9.172;2022-08-11T15:58:02;30.10;53.20
3035;DHT22;1527;48.836;9.172;2022-08-11T16:00:51;30.10;52.90
3035;DHT22;1527;48.836;9.172;2022-08-11T16:03:42;30.10;52.80
3035;DHT22;1527;48.836;9.172;2022-08-11T16:09:32;30.10;52.90
3035;DHT22;1527;48.836;9.172;2022-08-11T16:12:17;30.10;53.30
3035;DHT22;1527;48.836;9.172;2022-08-11T16:14:50;29.90;53.30
3035;DHT22;1527;48.836;9.172;2022-08-11T16:17:44;29.90;53.20
3035;DHT22;1527;48.836;9.172;2022-08-11T16:20:18;29.80;53.70
3035;DHT22;1527;48.836;9.172;2022-08-11T16:22:53;29.80;53.40
3035;DHT22;1527;48.836;9.172;2022-08-11T16:25:32;29.80;53.10
3035;DHT22;1527;48.836;9.172;2022-08-11T16:28:23;29.80;53.30
3035;DHT22;1527;48.836;9.172;2022-08-11T16:30:53;29.70;53.50
3035;DHT22;1527;48.836;9.172;2022-08-11T16:33:24;29.80;53.40
3035;DHT22;1527;48.836;9.172;2022-08-11T16:36:15;29.70;53.50
3035;DHT22;1527;48.836;9.172;2022-08-11T16:39:04;29.70;53.50
3035;DHT22;1527;48.836;9.172;2022-08-11T16:41:36;29.70;53.40
3035;DHT22;1527;48.836;9.172;2022-08-11T16:44:26;29.70;53.10
3035;DHT22;1527;48.836;9.172;2022-08-11T16:47:16;29.80;53.40
3035;DHT22;1527;48.836;9.172;2022-08-11T16:50:08;29.70;53.20
3035;DHT22;1527;48.836;9.172;2022-08-11T16:52:37;29.60;53.10
3035;DHT22;1527;48.836;9.172;2022-08-11T16:55:09;29.60;53.30
3035;DHT22;1527;48.836;9.172;2022-08-11T16:57:58;29.50;53.20
3035;DHT22;1527;48.836;9.172;2022-08-11T17:00:47;29.40;52.70
3035;DHT22;1527;48.836;9.172;2022-08-11T17:03:18;29.40;52.80
3035;DHT22;1527;48.836;9.172;2022-08-11T17:06:06;29.40;52.80
3035;DHT22;1527;48.836;9.172;2022-08-11T17:08:53;29.40;53.10
3035;DHT22;1527;48.836;9.172;2022-08-11T17:11:44;29.30;53.20
3035;DHT22;1527;48.836;9.172;2022-08-11T17:14:36;29.30;53.20
3035;DHT22;1527;48.836;9.172;2022-08-11T17:17:12;29.40;53.40
3035;DHT22;1527;48.836;9.172;2022-08-11T17:19:47;29.50;53.60
3035;DHT22;1527;48.836;9.172;2022-08-11T17:22:38;29.50;53.90
3035;DHT22;1527;48.836;9.172;2022-08-11T17:25:27;29.30;54.40
3035;DHT22;1527;48.836;9.172;2022-08-11T17:28:20;29.30;53.80
3035;DHT22;1527;48.836;9.172;2022-08-11T17:30:53;29.20;54.30
3035;DHT22;1527;48.836;9.172;2022-08-11T17:33:50;29.20;54.30
3035;DHT22;1527;48.836;9.172;2022-08-11T17:36:38;29.30;54.50
3035;DHT22;1527;48.836;9.172;2022-08-11T17:39:14;29.20;54.40
3035;DHT22;1527;48.836;9.172;2022-08-11T17:41:44;29.20;54.90
3035;DHT22;1527;48.836;9.172;2022-08-11T17:44:33;29.20;54.70
3035;DHT22;1527;48.836;9.172;2022-08-11T17:47:23;29.10;54.50
3035;DHT22;1527;48.836;9.172;2022-08-11T17:50:11;29.10;54.60
3035;DHT22;1527;48.836;9.172;2022-08-11T17:52:45;29.10;54.60
3035;DHT22;1527;48.836;9.172;2022-08-11T17:55:34;29.10;54.50
3035;DHT22;1527;48.836;9.172;2022-08-11T17:58:26;29.00;54.40
3035;DHT22;1527;48.836;9.172;2022-08-11T18:01:15;28.90;54.30
3035;DHT22;1527;48.836;9.172;2022-08-11T18:03:46;28.90;54.40
3035;DHT22;1527;48.836;9.172;2022-08-11T18:06:29;28.90;54.60
3035;DHT22;1527;48.836;9.172;2022-08-11T18:09:04;28.90;54.50
3035;DHT22;1527;48.836;9.172;2022-08-11T18:11:54;28.90;54.50
3035;DHT22;1527;48.836;9.172;2022-08-11T18:14:45;28.90;54.90
3035;DHT22;1527;48.836;9.172;2022-08-11T18:17:36;28.90;54.40
3035;DHT22;1527;48.836;9.172;2022-08-11T18:20:23;28.80;54.40
3035;DHT22;1527;48.836;9.172;2022-08-11T18:23:15;28.70;55.40
3035;DHT22;1527;48.836;9.172;2022-08-11T18:26:18;28.60;55.10
3035;DHT22;1527;48.836;9.172;2022-08-11T18:29:06;28.50;55.30
3035;DHT22;1527;48.836;9.172;2022-08-11T18:31:56;28.50;55.50
3035;DHT22;1527;48.836;9.172;2022-08-11T18:34:51;28.30;55.80
3035;DHT22;1527;48.836;9.172;2022-08-11T18:37:44;28.30;55.60
3035;DHT22;1527;48.836;9.172;2022-08-11T18:40:36;28.30;55.80
3035;DHT22;1527;48.836;9.172;2022-08-11T18:43:25;28.20;55.60
3035;DHT22;1527;48.836;9.172;2022-08-11T18:46:15;28.10;55.80